createdAt,value
2022-11-18T00:03:09.642Z,8.90
2022-11-18T00:08:09.726Z,8.81
2022-11-18T00:13:09.481Z,8.90
2022-11-18T00:20:49.812Z,9.10
2022-11-18T00:25:49.652Z,8.99
2022-11-18T00:30:49.687Z,8.91
2022-11-18T00:35:49.566Z,9.02
2022-11-18T00:40:49.619Z,8.55
2022-11-18T00:45:49.423Z,8.68
2022-11-18T00:50:49.374Z,8.65
2022-11-18T00:55:49.415Z,8.88
2022-11-18T01:00:49.254Z,8.86
2022-11-18T01:05:49.072Z,8.86
2022-11-18T01:10:52.062Z,8.63
2022-11-18T01:17:17.657Z,8.97
2022-11-18T01:24:12.117Z,8.88
2022-11-18T01:29:11.883Z,8.88
2022-11-18T01:34:19.349Z,9.05
2022-11-18T01:39:19.488Z,9.50
2022-11-18T01:44:18.805Z,9.50
2022-11-18T01:49:11.566Z,9.28
2022-11-18T01:54:11.546Z,9.10
2022-11-18T01:59:11.467Z,8.97
2022-11-18T02:04:11.451Z,8.97
2022-11-18T02:09:11.535Z,9.09
2022-11-18T02:14:14.803Z,9.02
2022-11-18T02:19:11.286Z,8.90
2022-11-18T02:24:11.199Z,9.25
2022-11-18T02:29:11.056Z,9.34
2022-11-18T02:34:11.019Z,9.05
2022-11-18T02:39:11.001Z,8.73
2022-11-18T02:44:10.944Z,8.81
2022-11-18T02:49:10.948Z,9.15
2022-11-18T02:54:11.713Z,9.02
2022-11-18T02:59:10.630Z,9.10
2022-11-18T03:05:27.846Z,9.15
2022-11-18T03:10:27.731Z,8.62
2022-11-18T03:15:27.627Z,8.40
2022-11-18T03:20:27.508Z,8.55
2022-11-18T03:25:27.562Z,8.36
2022-11-18T03:30:27.442Z,8.51
2022-11-18T03:35:27.369Z,8.87
2022-11-18T03:40:27.254Z,8.88
2022-11-18T03:46:44.385Z,9.23
2022-11-18T03:51:44.349Z,8.60
2022-11-18T03:56:44.958Z,8.42
2022-11-18T04:01:44.284Z,8.57
2022-11-18T04:06:44.222Z,8.66
2022-11-18T04:11:44.003Z,8.93
2022-11-18T04:16:44.053Z,8.90
2022-11-18T04:21:43.941Z,8.44
2022-11-18T04:26:43.980Z,8.47
2022-11-18T04:31:43.717Z,8.36
2022-11-18T04:36:46.667Z,8.29
2022-11-18T04:41:43.583Z,7.90
2022-11-18T04:46:43.516Z,8.17
2022-11-18T04:51:43.597Z,8.08
2022-11-18T04:56:48.763Z,8.22
2022-11-18T05:01:45.659Z,8.33
2022-11-18T05:06:43.250Z,8.54
2022-11-18T05:11:43.259Z,8.58
2022-11-18T05:16:43.247Z,8.29
2022-11-18T05:21:43.074Z,8.26
2022-11-18T05:26:43.166Z,8.30
2022-11-18T05:33:56.007Z,8.76
2022-11-18T05:38:55.789Z,8.81
2022-11-18T05:44:03.788Z,8.65
2022-11-18T05:48:55.600Z,8.22
2022-11-18T05:53:55.601Z,8.17
2022-11-18T05:58:55.506Z,8.26
2022-11-18T06:03:55.779Z,8.25
2022-11-18T06:08:55.513Z,8.39
2022-11-18T06:13:55.414Z,8.29
2022-11-18T06:18:55.234Z,8.08
2022-11-18T06:23:58.447Z,7.77
2022-11-18T06:28:55.138Z,7.31
2022-11-18T06:33:55.329Z,7.63
2022-11-18T06:47:07.938Z,7.74
2022-11-18T06:52:07.572Z,7.41
2022-11-18T06:57:07.552Z,7.52
2022-11-18T07:02:07.517Z,7.12
2022-11-18T07:38:28.307Z,7.47
2022-11-18T07:46:21.440Z,7.27
2022-11-18T08:21:22.454Z,7.04
2022-11-18T08:26:30.242Z,6.95
2022-11-18T09:56:25.270Z,5.92
2022-11-18T10:01:27.632Z,6.28
2022-11-18T10:11:30.729Z,5.96
2022-11-18T10:16:30.499Z,5.92
2022-11-18T10:21:30.550Z,5.89
2022-11-18T10:26:30.340Z,6.28
2022-11-18T10:31:30.320Z,5.98
2022-11-18T10:36:30.254Z,6.14
2022-11-18T10:41:30.374Z,5.68
2022-11-18T10:46:30.222Z,5.70
2022-11-18T10:51:30.209Z,5.82
2022-11-18T11:04:21.034Z,5.83
2022-11-18T11:10:38.746Z,5.82
2022-11-18T11:15:38.562Z,5.73
2022-11-18T11:20:38.543Z,5.88
2022-11-18T11:30:42.092Z,5.78
2022-11-18T11:35:39.210Z,5.48
2022-11-18T11:40:38.164Z,5.52
2022-11-18T11:45:38.226Z,4.83
2022-11-18T11:50:38.130Z,4.96
2022-11-18T11:55:38.075Z,4.88
2022-11-18T12:00:40.903Z,4.80
2022-11-18T12:05:37.847Z,4.61
2022-11-18T12:10:38.150Z,4.79
2022-11-18T12:15:37.776Z,4.51
2022-11-18T12:20:37.687Z,4.50
2022-11-18T12:25:37.540Z,4.44
2022-11-18T12:33:24.375Z,4.37
2022-11-18T12:40:32.720Z,4.40
2022-11-18T12:45:32.727Z,4.16
2022-11-18T12:50:32.596Z,3.85
2022-11-18T12:55:32.640Z,4.34
2022-11-18T13:08:35.802Z,4.14
2022-11-18T13:13:35.587Z,3.96
2022-11-18T13:18:36.097Z,4.04
2022-11-18T13:23:35.458Z,3.85
2022-11-18T13:28:35.632Z,4.32
2022-11-18T13:33:36.048Z,4.29
2022-11-18T13:38:35.542Z,3.89
2022-11-18T14:12:39.726Z,3.39
2022-11-18T14:17:39.457Z,3.27
2022-11-18T14:22:39.891Z,3.15
2022-11-18T14:27:39.395Z,3.15
2022-11-18T14:32:39.429Z,3.02
2022-11-18T14:37:39.372Z,3.21
2022-11-18T14:42:39.330Z,3.20
2022-11-18T14:47:39.141Z,3.18
2022-11-18T14:52:39.044Z,3.12
2022-11-18T14:57:39.243Z,3.05
2022-11-18T15:02:42.423Z,3.03
2022-11-18T15:07:38.943Z,2.88
2022-11-18T15:12:38.811Z,2.89
2022-11-18T16:17:29.468Z,1.90
2022-11-18T22:11:35.539Z,1.51
2022-11-18T22:16:35.339Z,1.73
2022-11-18T22:21:35.434Z,1.90
2022-11-18T22:26:35.228Z,1.64
2022-11-18T22:35:33.990Z,1.55
2022-11-18T22:40:33.898Z,1.71
2022-11-18T22:45:33.794Z,1.60
2022-11-18T22:50:33.711Z,1.55
2022-11-18T22:55:33.789Z,1.65
2022-11-18T23:00:33.519Z,1.87
2022-11-18T23:05:33.509Z,1.55
2022-11-18T23:10:33.416Z,1.69
2022-11-18T23:15:33.485Z,1.65
2022-11-18T23:20:33.274Z,1.64
2022-11-18T23:25:36.299Z,1.64
2022-11-18T23:30:33.139Z,1.33
2022-11-18T23:35:33.179Z,1.16
2022-11-18T23:40:33.124Z,1.18
2022-11-18T23:45:33.094Z,1.34
2022-11-18T23:50:36.591Z,1.25
2022-11-18T23:55:33.889Z,1.16
